CYKG

Kangiqsujuaq (Wakeham Bay) Airport

ICAO Code CYKG
IATA Code
Name Kangiqsujuaq (Wakeham Bay) Airport
Location Kangiqsujuaq, Quebec, CA
Elevation 517 Feet / 157.6 Meters
Latitude 61.58861111
Longitude -71.92944444
METAR CYKG 251600Z 02003KT 330V060 15SM FEW150 BKN250 02/M04 A3000 RMK AC2CI3 SLP173
Extra information Display Charts
Runway Length Width Surface Elevation
15 3520 ft 100 ft GRAVEL 517 ft
33 3520 ft 100 ft GRAVEL 478 ft